Aérodrome :
LOGIN :

S'inscrire | Disclaimer

   EN    FR    IT 

 










Légende :    VFR   VFR Marginal   IFR   IFR Intensif   IFR Très Intensif
Visi : 
Plafond : 
>= 8 km
>= 3000ft
5 à 8 km
1000 à 3000 ft
1500m à 5 km
500 à 1000 ft
800 à 1500m
200 à 500 ft
< 800m
< 200 ft
Symboles :   Orages  Brouillard  Fortes neiges  Fortes précipitations  Vent > 20 kt
SIGMETs :   Divers  Orages  Givrage  Turbulence  Onde Orograph.  Cendres Volcan.







- Altitude de l'aérodrome : 1058 ft
- Code IATA : SCN


EDDR - Saarbrücken

DERNIER METAR :
  • 181150Z 06012KT 010V090 CAVOK 16/02 Q1025 NOSIG

METARs EXPIRÉS :
  • 181120Z 04010KT 010V070 CAVOK 15/03 Q1025 NOSIG
  • 181050Z 02010KT 350V060 CAVOK 16/04 Q1025 NOSIG
  • 181020Z 05009KT 330V080 CAVOK 15/04 Q1025 NOSIG
  • 180950Z 04010KT 360V080 CAVOK 14/04 Q1025 NOSIG
  • 180920Z 06010KT 020V090 CAVOK 14/05 Q1025 NOSIG
  • 180850Z 05011KT 010V080 CAVOK 13/05 Q1025 NOSIG

TAF TAF EDDR
Valide du 18 à 12h jusqu'au 19 à 12h UTC


181100Z 1812/1912 04009KT CAVOK
Pas de NOTAMs connus pour ce terrain.



MET'MAP, la Météo Aéronautique d'un coup d'oeil ! - Copyright ORBIFLY Décembre 2007 - Disclaimer

ORBIFLY MET'MAP TEAM :

Programmation & Développement : Alexandra Zaïnal
Conception & Développement : Baudouin d'Aumeries
Co-Programmation & Développement : Marc-Olivier Méhu
Soutien technique & logistique : Manuel Goepfert

Contact : metmap@orbifly.com




SOURCES & CREDITS :

   NOAA